sim
Sign-in with your pilot id or email,
or register
Callsign
Passwort

Schedule Details

Flight Number: DLH1288 (2)
Departure: Frankfurt Airport (EDDF) at 05:50
Arrival: Thessaloniki International Airport (LGTS) at 08:15
Route: Lufthansa Passenger Schedule. Enter filed route here before submitting Pirep.

Weather Information
Getting current METAR information for EDDF 211050Z 20003KT 160V230 9999 FEW045 07/04 Q1029 NOSIG
Getting current METAR information for LGTS 211050Z 34016KT CAVOK 16/M01 Q1023 NOSIG

Schedule Frequency

Route Map